Time;durP1;ratioP1;P1;durP2;ratioP2;P2;SDS_P1;SDS_P2;PMS_P1;PMS_P2;Temp;Humidity;BMP_temperature;BMP_pressure;BME280_temperature;BME280_humidity;BME280_pressure;Samples;Min_cycle;Max_cycle;Signal;HPM_P1;HPM_P2
2022/04/17 00:00:10;;;;;;;3.90;3.60;;;8.80;59.60;;;;;;5092672;28;20234;-66
2022/04/17 00:02:36;;;;;;;6.05;4.32;;;8.80;59.70;;;;;;5091830;28;20231;-64
2022/04/17 00:05:04;;;;;;;6.60;4.60;;;8.80;59.80;;;;;;5092593;28;20227;-64
2022/04/17 00:07:31;;;;;;;4.97;4.57;;;8.80;59.90;;;;;;5091932;28;20577;-65
2022/04/17 00:09:58;;;;;;;5.88;4.70;;;8.80;60.20;;;;;;5090450;28;20222;-64
2022/04/17 00:12:26;;;;;;;5.05;4.30;;;8.80;60.20;;;;;;5092147;28;20238;-64
2022/04/17 00:14:54;;;;;;;5.38;4.85;;;8.80;60.30;;;;;;5092396;28;20223;-65
2022/04/17 00:17:23;;;;;;;5.72;4.55;;;8.80;60.40;;;;;;5092397;28;20303;-64
2022/04/17 00:19:50;;;;;;;6.25;4.03;;;8.80;60.60;;;;;;5085878;28;20223;-65
2022/04/17 00:22:17;;;;;;;4.82;4.25;;;8.70;60.70;;;;;;5086880;28;20311;-65
2022/04/17 00:24:44;;;;;;;4.15;3.75;;;8.70;60.70;;;;;;5086417;28;20224;-65
2022/04/17 00:27:11;;;;;;;4.20;3.80;;;8.70;60.80;;;;;;5092440;28;20224;-65
2022/04/17 00:29:38;;;;;;;5.72;4.05;;;8.70;61.00;;;;;;5091863;28;20239;-65
2022/04/17 00:32:06;;;;;;;4.38;3.97;;;8.70;61.20;;;;;;5092087;28;20238;-65
2022/04/17 00:34:35;;;;;;;5.25;4.28;;;8.70;61.50;;;;;;5093351;28;20314;-65
2022/04/17 00:37:02;;;;;;;4.82;4.43;;;8.70;61.30;;;;;;5096364;28;20231;-65
2022/04/17 00:39:29;;;;;;;3.85;3.35;;;8.60;61.30;;;;;;5095535;28;20223;-65
2022/04/17 00:41:56;;;;;;;5.82;3.53;;;8.50;61.30;;;;;;5095982;28;20234;-65
2022/04/17 00:44:24;;;;;;;4.55;3.30;;;8.50;61.50;;;;;;5096146;28;20232;-65
2022/04/17 00:46:50;;;;;;;5.63;4.00;;;8.50;61.50;;;;;;5095543;28;20223;-65
2022/04/17 00:49:17;;;;;;;4.75;3.95;;;8.50;61.50;;;;;;5095829;28;20227;-64
2022/04/17 00:51:48;;;;;;;3.65;3.35;;;8.40;61.50;;;;;;5095476;28;20224;-65
2022/04/17 00:54:19;;;;;;;4.30;3.30;;;8.40;61.60;;;;;;5096007;28;20229;-65
2022/04/17 00:56:48;;;;;;;4.70;3.28;;;8.40;61.70;;;;;;5087944;28;20258;-65
2022/04/17 00:59:16;;;;;;;3.78;3.28;;;8.40;61.90;;;;;;5095455;28;20231;-65
2022/04/17 01:01:46;;;;;;;3.50;3.20;;;8.40;62.10;;;;;;5095114;28;20242;-66
2022/04/17 01:04:14;;;;;;;3.25;2.95;;;8.40;62.00;;;;;;5088650;28;20227;-65
2022/04/17 01:06:41;;;;;;;3.45;3.10;;;8.40;63.00;;;;;;5095217;28;20284;-65
2022/04/17 01:09:09;;;;;;;4.05;2.92;;;8.40;62.40;;;;;;5095345;28;20223;-66
2022/04/17 01:11:39;;;;;;;4.03;3.35;;;8.40;62.20;;;;;;5093669;28;20227;-65
2022/04/17 01:14:08;;;;;;;3.60;3.30;;;8.40;62.50;;;;;;5095606;28;20227;-64
2022/04/17 01:16:36;;;;;;;5.22;4.18;;;8.30;62.70;;;;;;5095072;28;20557;-64
2022/04/17 01:19:11;;;;;;;3.95;3.65;;;8.40;62.90;;;;;;5094947;28;20296;-65
2022/04/17 01:21:39;;;;;;;5.63;3.60;;;8.30;63.20;;;;;;5094680;28;20222;-65
2022/04/17 01:26:59;;;;;;;6.00;5.40;;;8.20;62.90;;;;;;5081532;28;22449;-65
2022/04/17 01:29:28;;;;;;;5.25;4.57;;;8.20;63.10;;;;;;5094969;28;20233;-64
2022/04/17 01:31:55;;;;;;;4.20;3.35;;;8.10;63.30;;;;;;5094484;28;20247;-64
2022/04/17 01:34:24;;;;;;;4.25;3.85;;;8.10;63.30;;;;;;5095177;28;20223;-66
2022/04/17 01:36:53;;;;;;;4.55;4.15;;;8.10;63.60;;;;;;5094600;28;20292;-66
2022/04/17 01:39:20;;;;;;;6.95;4.60;;;8.00;63.90;;;;;;5094799;28;20258;-64
2022/04/17 01:41:47;;;;;;;4.38;3.88;;;8.10;64.00;;;;;;5094549;28;20234;-64
2022/04/17 01:44:16;;;;;;;4.07;3.67;;;8.10;64.10;;;;;;5094856;28;20665;-65
2022/04/17 01:46:43;;;;;;;3.53;3.10;;;8.10;65.10;;;;;;5094179;28;20302;-65
2022/04/17 01:49:10;;;;;;;4.18;3.10;;;8.10;64.10;;;;;;5094894;28;20581;-64
2022/04/17 01:51:38;;;;;;;3.30;2.80;;;8.10;64.50;;;;;;5094359;28;20235;-64
2022/04/17 01:54:08;;;;;;;4.18;3.33;;;8.10;64.50;;;;;;5092973;28;20704;-65
2022/04/17 01:56:35;;;;;;;4.22;3.92;;;8.10;64.50;;;;;;5093512;28;20227;-64
2022/04/17 01:59:04;;;;;;;3.08;2.88;;;8.00;64.70;;;;;;5094315;28;20235;-65
2022/04/17 02:01:31;;;;;;;7.07;5.93;;;8.00;64.80;;;;;;5094411;28;20628;-64
2022/04/17 02:03:58;;;;;;;4.20;3.80;;;8.00;65.10;;;;;;5094116;28;20222;-64
2022/04/17 02:06:25;;;;;;;4.28;3.88;;;8.00;65.20;;;;;;5094472;28;20219;-64
2022/04/17 02:08:52;;;;;;;5.03;4.43;;;8.00;65.10;;;;;;5093900;28;20223;-64
2022/04/17 02:11:21;;;;;;;6.13;4.85;;;8.10;65.00;;;;;;5094426;28;20589;-64
2022/04/17 02:13:48;;;;;;;4.47;4.07;;;8.10;65.20;;;;;;5082053;28;20212;-65
2022/04/17 02:16:17;;;;;;;3.97;3.55;;;8.00;65.40;;;;;;5093846;28;20306;-64
2022/04/17 02:18:44;;;;;;;4.40;3.30;;;8.00;65.30;;;;;;5093364;28;20219;-65
2022/04/17 02:21:12;;;;;;;5.43;3.40;;;8.10;65.20;;;;;;5094076;28;20230;-64
2022/04/17 02:23:40;;;;;;;4.07;3.67;;;8.00;65.20;;;;;;5084663;28;20231;-64
2022/04/17 02:26:06;;;;;;;3.72;3.42;;;8.10;65.40;;;;;;5094162;28;20226;-64
2022/04/17 02:28:35;;;;;;;10.52;5.80;;;8.00;65.40;;;;;;5094149;28;20215;-64
2022/04/17 02:31:03;;;;;;;5.80;5.30;;;8.00;66.00;;;;;;5093552;28;20979;-65
2022/04/17 02:33:30;;;;;;;6.13;4.80;;;8.00;66.10;;;;;;5093985;28;20318;-65
2022/04/17 02:35:57;;;;;;;4.57;4.25;;;8.00;66.50;;;;;;5093385;28;20231;-65
2022/04/17 02:38:25;;;;;;;4.57;4.07;;;8.00;66.50;;;;;;5093799;28;20224;-65
2022/04/17 02:40:52;;;;;;;4.40;4.00;;;8.00;66.70;;;;;;5093452;28;20277;-65
2022/04/17 02:43:19;;;;;;;3.75;3.33;;;8.00;66.70;;;;;;5093798;28;20224;-65
2022/04/17 02:45:47;;;;;;;4.85;4.45;;;8.00;66.70;;;;;;5093170;28;20219;-65
2022/04/17 02:48:14;;;;;;;4.40;3.90;;;8.00;66.50;;;;;;5093882;28;20566;-65
2022/04/17 02:50:41;;;;;;;4.00;3.70;;;8.00;66.70;;;;;;5093211;28;20219;-65
2022/04/17 02:53:08;;;;;;;3.63;3.25;;;8.10;66.30;;;;;;5093754;28;20238;-65
2022/04/17 02:55:35;;;;;;;4.07;3.78;;;8.10;66.10;;;;;;5095077;28;20224;-65
2022/04/17 02:58:02;;;;;;;3.30;3.00;;;8.10;66.20;;;;;;5092264;28;20550;-65
2022/04/17 03:00:32;;;;;;;3.97;3.42;;;8.10;66.50;;;;;;5093207;28;20234;-65
2022/04/17 03:05:44;;;;;;;4.00;3.63;;;8.10;66.60;;;;;;5079438;28;20556;-65
2022/04/17 03:08:13;;;;;;;4.05;3.65;;;8.10;66.90;;;;;;5093229;28;20230;-65
2022/04/17 03:10:41;;;;;;;3.63;3.25;;;8.00;67.00;;;;;;5092960;28;20219;-65
2022/04/17 03:13:09;;;;;;;3.45;3.15;;;8.00;67.40;;;;;;5092702;28;21093;-65
2022/04/17 03:15:37;;;;;;;3.90;3.50;;;8.00;67.70;;;;;;5092364;28;20220;-65
2022/04/17 03:18:06;;;;;;;4.05;3.67;;;8.00;68.00;;;;;;5091328;28;20605;-65
2022/04/17 03:20:33;;;;;;;6.28;4.88;;;7.90;68.20;;;;;;5091400;28;20219;-65
2022/04/17 03:23:00;;;;;;;4.03;3.70;;;8.00;68.60;;;;;;5091597;28;20224;-65
2022/04/17 03:25:27;;;;;;;4.03;3.55;;;8.00;69.00;;;;;;5092538;28;20219;-65
2022/04/17 03:27:54;;;;;;;4.95;4.32;;;8.00;69.30;;;;;;5091900;28;20670;-65
2022/04/17 03:30:21;;;;;;;4.07;3.30;;;8.00;69.50;;;;;;5091995;28;20230;-65
2022/04/17 03:32:50;;;;;;;4.50;4.13;;;7.90;69.60;;;;;;5092248;28;20219;-65
2022/04/17 03:35:19;;;;;;;4.47;4.05;;;7.90;69.70;;;;;;5093015;28;20240;-65
2022/04/17 03:37:46;;;;;;;4.00;3.65;;;7.90;69.70;;;;;;5092675;28;20273;-65
2022/04/17 03:40:15;;;;;;;4.38;3.97;;;7.90;69.60;;;;;;5093047;28;20554;-65
2022/04/17 03:42:43;;;;;;;4.70;4.30;;;7.90;69.30;;;;;;5092856;28;20227;-65
2022/04/17 03:45:14;;;;;;;4.50;4.10;;;8.00;69.20;;;;;;5092521;28;20233;-65
2022/04/17 03:47:41;;;;;;;4.72;4.32;;;8.00;69.30;;;;;;5092763;28;20231;-65
2022/04/17 03:50:10;;;;;;;3.50;3.20;;;8.00;69.90;;;;;;5092414;28;20658;-65
2022/04/17 03:52:41;;;;;;;4.78;3.90;;;8.00;69.90;;;;;;5092863;28;20234;-66
2022/04/17 03:55:09;;;;;;;4.70;4.30;;;8.00;70.20;;;;;;5092547;28;20558;-66
2022/04/17 03:57:36;;;;;;;5.35;4.95;;;8.00;71.20;;;;;;5092557;28;20224;-65
2022/04/17 04:00:05;;;;;;;4.70;3.90;;;8.00;70.40;;;;;;5092288;28;20224;-65
2022/04/17 04:02:33;;;;;;;4.90;4.40;;;8.00;70.40;;;;;;5092626;28;20223;-66
2022/04/17 04:05:00;;;;;;;5.35;4.85;;;8.00;70.60;;;;;;5092238;28;20413;-65
2022/04/17 04:07:26;;;;;;;5.32;4.30;;;7.90;70.60;;;;;;5092625;28;20216;-66
2022/04/17 04:09:55;;;;;;;4.80;4.40;;;8.00;70.80;;;;;;5094407;28;20238;-65
2022/04/17 04:12:21;;;;;;;4.80;4.40;;;7.90;71.10;;;;;;5077026;28;20224;-65
2022/04/17 04:14:49;;;;;;;4.57;3.83;;;7.90;71.50;;;;;;5092917;28;20214;-65
2022/04/17 04:17:16;;;;;;;5.68;4.22;;;7.90;71.60;;;;;;5096702;28;20223;-65
2022/04/17 04:19:43;;;;;;;4.75;4.32;;;8.00;71.80;;;;;;5084653;28;20220;-65
2022/04/17 04:22:09;;;;;;;6.13;5.55;;;8.00;71.90;;;;;;5075859;28;20224;-65
2022/04/17 04:24:36;;;;;;;5.05;4.00;;;7.90;71.90;;;;;;5096073;28;20245;-66
2022/04/17 04:29:49;;;;;;;6.93;4.43;;;7.90;72.10;;;;;;5096251;28;20758;-65
2022/04/17 04:32:19;;;;;;;4.70;4.30;;;8.00;72.30;;;;;;5096132;28;20222;-66
2022/04/17 04:34:46;;;;;;;4.30;3.90;;;7.90;72.50;;;;;;5096417;28;20211;-66
2022/04/17 04:37:13;;;;;;;4.30;3.90;;;7.90;72.90;;;;;;5095992;28;20223;-65
2022/04/17 04:39:39;;;;;;;4.15;3.75;;;8.00;72.80;;;;;;5096220;28;20227;-65
2022/04/17 04:42:08;;;;;;;7.00;3.97;;;7.90;72.90;;;;;;5095978;28;20573;-65
2022/04/17 04:44:35;;;;;;;5.22;3.85;;;7.90;73.20;;;;;;5096158;28;20279;-66
2022/04/17 04:47:00;;;;;;;4.97;4.25;;;7.90;73.50;;;;;;5095764;28;20223;-65
2022/04/17 04:49:30;;;;;;;4.23;3.93;;;7.90;74.10;;;;;;5096055;28;20672;-66
2022/04/17 04:51:57;;;;;;;5.07;4.55;;;7.90;74.30;;;;;;5095594;28;20223;-65
2022/04/17 04:54:24;;;;;;;4.88;3.90;;;7.90;74.40;;;;;;5096055;28;20224;-65
2022/04/17 04:56:51;;;;;;;5.47;4.97;;;7.90;74.50;;;;;;5095572;28;20221;-66
2022/04/17 04:59:19;;;;;;;6.43;5.88;;;7.90;75.60;;;;;;5095701;28;20224;-66
2022/04/17 05:01:46;;;;;;;4.50;4.10;;;7.90;74.70;;;;;;5095821;28;20235;-65
2022/04/17 05:04:13;;;;;;;3.80;3.50;;;7.90;74.70;;;;;;5095360;28;20322;-66
2022/04/17 05:06:39;;;;;;;6.15;4.20;;;7.90;74.70;;;;;;5095808;28;20227;-66
2022/04/17 05:09:06;;;;;;;4.85;4.35;;;8.00;74.80;;;;;;5095307;28;20223;-66
2022/04/17 05:11:33;;;;;;;4.95;4.43;;;8.00;74.80;;;;;;5095632;28;20249;-65
2022/04/17 05:14:00;;;;;;;4.45;4.05;;;8.00;74.80;;;;;;5095142;28;20230;-66
2022/04/17 05:16:28;;;;;;;4.65;4.25;;;8.00;74.60;;;;;;5095730;28;20563;-65
2022/04/17 05:19:19;;;;;;;5.90;5.00;;;8.00;74.70;;;;;;5095121;28;20230;-65
2022/04/17 05:21:45;;;;;;;5.53;4.10;;;8.10;74.90;;;;;;5094778;28;20672;-65
2022/04/17 05:24:11;;;;;;;5.10;4.60;;;8.10;75.40;;;;;;5094912;28;20569;-65
2022/04/17 05:26:38;;;;;;;5.85;5.35;;;8.10;75.00;;;;;;5095500;28;20220;-65
2022/04/17 05:29:05;;;;;;;5.10;4.63;;;8.20;74.60;;;;;;5094978;28;20223;-65
2022/04/17 05:31:33;;;;;;;6.05;4.95;;;8.20;74.30;;;;;;5095102;28;20246;-65
2022/04/17 05:34:00;;;;;;;5.63;4.70;;;8.20;74.40;;;;;;5094990;28;20223;-65
2022/04/17 05:36:27;;;;;;;5.60;4.60;;;8.30;74.40;;;;;;5095172;28;20216;-65
2022/04/17 05:38:55;;;;;;;4.70;4.25;;;8.30;74.10;;;;;;5094816;28;20223;-65
2022/04/17 05:41:24;;;;;;;4.07;3.72;;;8.30;73.80;;;;;;5094898;28;20247;-65
2022/04/17 05:43:51;;;;;;;4.45;4.00;;;8.40;73.60;;;;;;5095063;28;20222;-64
2022/04/17 05:46:18;;;;;;;5.72;5.00;;;8.40;73.40;;;;;;5094468;28;20226;-65
2022/04/17 05:48:47;;;;;;;4.60;4.20;;;8.40;72.60;;;;;;5095054;28;20222;-65
2022/04/17 05:51:14;;;;;;;8.50;6.40;;;8.40;72.60;;;;;;5094391;28;21178;-65
2022/04/17 05:53:41;;;;;;;5.65;5.15;;;8.50;72.80;;;;;;5094873;28;20249;-65
2022/04/17 05:56:08;;;;;;;5.85;5.28;;;8.50;72.80;;;;;;5094343;28;20571;-64
2022/04/17 05:58:35;;;;;;;5.65;4.95;;;8.50;72.80;;;;;;5094551;28;20219;-64
2022/04/17 06:01:03;;;;;;;5.30;4.90;;;8.60;73.00;;;;;;5094268;28;20568;-64
2022/04/17 06:03:30;;;;;;;5.35;4.95;;;8.60;72.60;;;;;;5094711;28;20223;-64
2022/04/17 06:05:58;;;;;;;9.50;5.47;;;8.70;72.50;;;;;;5093997;28;20247;-64
2022/04/17 06:08:25;;;;;;;6.82;6.22;;;8.70;72.30;;;;;;5094707;28;20230;-65
2022/04/17 06:10:52;;;;;;;6.90;4.80;;;8.70;71.90;;;;;;5094431;28;20234;-65
2022/04/17 06:13:19;;;;;;;5.13;4.65;;;8.70;71.80;;;;;;5093947;28;20219;-64
2022/04/17 06:15:46;;;;;;;5.53;5.03;;;8.80;71.90;;;;;;5094481;28;20693;-64
2022/04/17 06:18:13;;;;;;;6.00;4.90;;;8.90;71.80;;;;;;5093974;28;20234;-64
2022/04/17 06:20:40;;;;;;;4.82;4.35;;;8.90;71.80;;;;;;5094213;28;21559;-65
2022/04/17 06:23:08;;;;;;;4.60;4.20;;;9.00;71.40;;;;;;5093798;28;20219;-64
2022/04/17 06:25:35;;;;;;;4.90;4.50;;;9.10;70.90;;;;;;5094325;28;20219;-65
2022/04/17 06:28:02;;;;;;;5.00;4.60;;;9.20;69.50;;;;;;5093789;28;20227;-64
2022/04/17 06:30:29;;;;;;;5.13;4.80;;;9.20;69.50;;;;;;5094124;28;20288;-65
2022/04/17 06:32:56;;;;;;;5.60;4.47;;;9.20;69.70;;;;;;5093143;28;20223;-64
2022/04/17 06:35:23;;;;;;;4.65;4.20;;;9.30;70.20;;;;;;5093641;28;20614;-65
2022/04/17 06:37:51;;;;;;;4.65;4.25;;;9.30;70.00;;;;;;5094167;28;20223;-64
2022/04/17 06:40:21;;;;;;;4.13;3.72;;;9.40;69.10;;;;;;5093352;28;20220;-64
2022/04/17 06:42:49;;;;;;;6.13;3.80;;;9.40;69.20;;;;;;5094018;28;20220;-64
2022/04/17 06:45:16;;;;;;;4.60;4.20;;;9.40;69.00;;;;;;5093536;28;20246;-65
2022/04/17 06:47:44;;;;;;;4.63;3.95;;;9.60;68.80;;;;;;5093828;28;20219;-65
2022/04/17 06:50:11;;;;;;;2.90;2.65;;;9.60;68.60;;;;;;5093452;28;20226;-64
2022/04/17 06:52:38;;;;;;;3.60;3.30;;;9.60;67.70;;;;;;5093865;28;20223;-64
2022/04/17 06:55:08;;;;;;;3.10;2.90;;;9.70;67.40;;;;;;5093031;28;20230;-64
2022/04/17 06:57:37;;;;;;;4.50;3.28;;;9.80;67.30;;;;;;5093771;28;20330;-64
2022/04/17 07:00:07;;;;;;;3.67;3.38;;;9.90;67.20;;;;;;5093310;28;20273;-64
2022/04/17 07:02:34;;;;;;;4.03;3.53;;;9.90;67.20;;;;;;5093325;28;20237;-64
2022/04/17 07:05:00;;;;;;;3.40;3.10;;;10.00;66.20;;;;;;5093218;28;20227;-64
2022/04/17 07:07:27;;;;;;;3.33;3.03;;;10.10;66.40;;;;;;5093749;28;20557;-64
2022/04/17 07:09:54;;;;;;;3.08;2.88;;;10.20;65.50;;;;;;5093498;28;20219;-64
2022/04/17 07:12:21;;;;;;;2.72;2.53;;;10.30;65.20;;;;;;5092788;28;20241;-65
2022/04/17 07:14:50;;;;;;;2.53;2.33;;;10.40;64.40;;;;;;5093337;28;20276;-65
2022/04/17 07:17:16;;;;;;;3.08;2.33;;;10.50;64.10;;;;;;5092907;28;20223;-64
2022/04/17 07:19:43;;;;;;;2.95;2.75;;;10.60;63.10;;;;;;5093425;28;20536;-65
2022/04/17 07:22:13;;;;;;;2.55;1.95;;;10.60;63.00;;;;;;5092725;28;20230;-65
2022/04/17 07:24:43;;;;;;;2.70;2.50;;;10.70;62.90;;;;;;5073057;28;20231;-66
2022/04/17 07:27:11;;;;;;;2.45;2.25;;;10.80;62.60;;;;;;5072577;28;20307;-65
2022/04/17 07:29:38;;;;;;;3.15;2.28;;;10.90;62.40;;;;;;5072915;28;20224;-65
2022/04/17 07:32:07;;;;;;;2.33;2.13;;;11.00;62.50;;;;;;5072313;28;20710;-65
2022/04/17 07:34:34;;;;;;;2.55;2.35;;;11.10;62.30;;;;;;5072986;28;20220;-65
2022/04/17 07:37:01;;;;;;;2.80;2.20;;;11.20;61.30;;;;;;5072807;28;20590;-65
2022/04/17 07:39:28;;;;;;;3.25;2.20;;;11.30;61.60;;;;;;5072555;28;20254;-65
2022/04/17 07:41:55;;;;;;;2.35;2.15;;;11.40;61.70;;;;;;5072871;28;20228;-65
2022/04/17 07:44:25;;;;;;;2.47;2.20;;;11.50;61.90;;;;;;5072109;28;20239;-65
2022/04/17 07:46:51;;;;;;;2.88;2.67;;;11.60;61.70;;;;;;5072674;28;20615;-65
2022/04/17 07:49:19;;;;;;;3.78;2.75;;;11.70;61.70;;;;;;5072400;28;20566;-65
2022/04/17 07:51:46;;;;;;;3.72;2.70;;;11.70;61.50;;;;;;5072682;28;20235;-65
2022/04/17 07:54:13;;;;;;;2.35;2.15;;;11.80;61.10;;;;;;5072101;28;20231;-65
2022/04/17 07:56:40;;;;;;;3.05;2.75;;;11.90;60.90;;;;;;5072793;28;20216;-65
2022/04/17 07:59:07;;;;;;;2.95;2.65;;;12.00;61.30;;;;;;5072117;28;20592;-65
2022/04/17 08:01:39;;;;;;;3.65;2.70;;;12.10;61.50;;;;;;5072367;28;20228;-65
2022/04/17 08:04:06;;;;;;;2.60;2.40;;;12.20;60.40;;;;;;5072261;28;20223;-65
2022/04/17 08:06:34;;;;;;;2.22;2.03;;;12.30;60.00;;;;;;5072546;28;20220;-65
2022/04/17 08:09:01;;;;;;;2.10;1.90;;;12.40;60.00;;;;;;5072422;28;20702;-65
2022/04/17 08:11:28;;;;;;;3.20;2.63;;;12.40;59.90;;;;;;5077648;28;20292;-65
2022/04/17 08:13:55;;;;;;;2.97;2.67;;;12.50;59.80;;;;;;5092333;28;20230;-65
2022/04/17 08:16:23;;;;;;;2.35;2.20;;;12.60;59.80;;;;;;5092203;28;20227;-65
2022/04/17 08:18:50;;;;;;;2.60;2.40;;;12.70;59.80;;;;;;5092906;28;20255;-65
2022/04/17 08:21:20;;;;;;;3.22;2.80;;;12.80;59.40;;;;;;5092053;28;20237;-65
2022/04/17 08:23:49;;;;;;;3.97;2.75;;;12.90;59.20;;;;;;5092544;28;20284;-66
2022/04/17 08:26:15;;;;;;;2.85;2.55;;;13.00;58.50;;;;;;5092239;28;20223;-65
2022/04/17 08:28:42;;;;;;;2.40;2.20;;;13.00;57.80;;;;;;5092491;28;20219;-64
2022/04/17 08:31:12;;;;;;;3.15;2.75;;;13.10;57.90;;;;;;5092081;28;20230;-65
2022/04/17 08:33:38;;;;;;;3.15;2.65;;;13.20;57.90;;;;;;5092589;28;20558;-65
2022/04/17 08:36:05;;;;;;;2.45;2.25;;;13.20;58.10;;;;;;5092332;28;20228;-65
2022/04/17 08:38:33;;;;;;;2.55;2.35;;;13.30;57.90;;;;;;5092220;28;20215;-66
2022/04/17 08:41:05;;;;;;;2.90;2.63;;;13.40;57.60;;;;;;5092318;28;20235;-65
2022/04/17 08:43:32;;;;;;;3.15;2.53;;;13.50;57.10;;;;;;5092039;28;20488;-65
2022/04/17 08:45:59;;;;;;;2.85;2.15;;;13.60;56.70;;;;;;5092271;28;20219;-65
2022/04/17 08:48:27;;;;;;;3.25;2.38;;;13.70;56.90;;;;;;5091851;28;20215;-65
2022/04/17 08:50:56;;;;;;;4.90;3.83;;;13.70;56.70;;;;;;5092323;28;20247;-65
2022/04/17 08:53:24;;;;;;;4.30;3.30;;;13.80;56.90;;;;;;5091955;28;20457;-65
2022/04/17 08:55:51;;;;;;;2.90;2.55;;;13.80;56.90;;;;;;5094327;28;20469;-64
2022/04/17 08:58:20;;;;;;;4.60;3.83;;;13.90;57.40;;;;;;5095363;28;20231;-65
2022/04/17 09:00:47;;;;;;;4.17;3.10;;;13.90;57.10;;;;;;5095964;28;20472;-66
2022/04/17 09:03:14;;;;;;;3.05;2.75;;;13.90;57.10;;;;;;5095408;28;20461;-65
2022/04/17 09:05:41;;;;;;;5.13;3.10;;;14.00;57.00;;;;;;5095970;28;20607;-65
2022/04/17 09:08:15;;;;;;;3.13;2.83;;;14.00;56.90;;;;;;5095970;28;20500;-65
2022/04/17 09:10:52;;;;;;;3.63;3.30;;;14.10;56.60;;;;;;5095518;28;20230;-65
2022/04/17 09:13:26;;;;;;;3.78;2.80;;;14.10;56.40;;;;;;5079451;28;20465;-65
2022/04/17 09:15:54;;;;;;;3.10;2.50;;;14.10;56.10;;;;;;5095710;28;20287;-66
2022/04/17 09:18:21;;;;;;;3.93;3.00;;;14.10;56.10;;;;;;5095157;28;20485;-66
2022/04/17 09:20:49;;;;;;;3.57;3.20;;;14.10;56.30;;;;;;5095562;28;20465;-65
2022/04/17 09:23:16;;;;;;;2.95;2.65;;;14.20;56.40;;;;;;5095440;28;20469;-65
2022/04/17 09:25:45;;;;;;;3.30;2.93;;;14.30;55.90;;;;;;5095204;28;20226;-66
2022/04/17 09:28:12;;;;;;;3.23;2.90;;;14.40;55.80;;;;;;5095564;28;20526;-65
2022/04/17 09:30:45;;;;;;;5.80;2.93;;;14.50;55.50;;;;;;5094803;28;20943;-65
2022/04/17 09:33:13;;;;;;;4.33;3.20;;;14.60;55.00;;;;;;5095264;28;20461;-64
2022/04/17 09:35:41;;;;;;;3.10;2.80;;;14.60;55.30;;;;;;5095197;28;20466;-64
2022/04/17 09:38:09;;;;;;;4.40;3.20;;;14.70;55.30;;;;;;5095209;28;20556;-64
2022/04/17 09:40:37;;;;;;;3.60;2.60;;;14.70;54.70;;;;;;5094706;28;20461;-64
2022/04/17 09:43:10;;;;;;;3.73;3.00;;;14.80;54.70;;;;;;5095385;28;20523;-64
2022/04/17 09:46:00;;;;;;;5.30;3.10;;;14.80;54.70;;;;;;5094609;28;20476;-65
2022/04/17 09:48:30;;;;;;;4.57;3.07;;;14.80;54.60;;;;;;5094554;28;20485;-65
2022/04/17 09:50:57;;;;;;;3.57;2.47;;;14.90;54.10;;;;;;5094658;28;20843;-64
2022/04/17 09:53:34;;;;;;;3.40;2.60;;;14.90;54.10;;;;;;5094693;28;20457;-64
2022/04/17 09:56:08;;;;;;;2.80;2.53;;;14.90;54.20;;;;;;5095150;28;20521;-64
2022/04/17 09:58:37;;;;;;;2.43;2.23;;;14.80;54.20;;;;;;5094114;28;20469;-64
2022/04/17 10:01:07;;;;;;;3.20;2.77;;;14.90;54.20;;;;;;5094685;28;20466;-64
2022/04/17 10:03:38;;;;;;;5.13;2.50;;;14.90;54.20;;;;;;5094461;28;20944;-64
2022/04/17 10:06:06;;;;;;;3.67;2.87;;;14.90;54.20;;;;;;5094582;28;20472;-64
2022/04/17 10:08:33;;;;;;;2.50;2.30;;;14.90;54.40;;;;;;5094327;28;20955;-64
2022/04/17 10:11:01;;;;;;;3.37;2.90;;;15.00;54.30;;;;;;5094465;28;20480;-65
2022/04/17 10:13:28;;;;;;;3.43;2.70;;;15.00;54.40;;;;;;5094092;28;20793;-64
2022/04/17 10:15:59;;;;;;;3.47;3.17;;;15.00;54.60;;;;;;5094460;28;20473;-65
2022/04/17 10:18:31;;;;;;;2.63;2.43;;;15.10;54.80;;;;;;5093954;28;20800;-66
2022/04/17 10:20:58;;;;;;;3.23;2.47;;;15.10;54.60;;;;;;5094280;28;20477;-65
2022/04/17 10:23:27;;;;;;;3.80;3.03;;;15.20;54.70;;;;;;5093958;28;20464;-66
2022/04/17 10:25:57;;;;;;;2.77;2.40;;;15.20;54.70;;;;;;5094435;28;20457;-65
2022/04/17 10:28:27;;;;;;;6.73;2.90;;;15.40;54.40;;;;;;5093948;28;20465;-65
2022/04/17 10:31:10;;;;;;;2.43;2.23;;;15.40;54.60;;;;;;5094318;28;20789;-65
2022/04/17 10:33:50;;;;;;;2.20;1.90;;;15.50;54.60;;;;;;5093830;28;20472;-64
2022/04/17 10:36:28;;;;;;;2.70;2.30;;;15.50;54.40;;;;;;5093932;28;20479;-64
2022/04/17 10:39:12;;;;;;;4.33;3.17;;;15.50;53.60;;;;;;5093896;28;20781;-64
2022/04/17 10:41:39;;;;;;;3.07;2.80;;;15.50;53.30;;;;;;5093655;28;20480;-64
2022/04/17 10:44:06;;;;;;;2.60;2.40;;;15.50;53.00;;;;;;5094058;28;20472;-64
2022/04/17 10:46:47;;;;;;;2.97;2.17;;;15.60;53.10;;;;;;5093435;28;20470;-64
2022/04/17 10:49:18;;;;;;;3.03;2.73;;;15.60;53.20;;;;;;5093931;28;20466;-64
2022/04/17 10:51:51;;;;;;;3.40;2.53;;;15.70;53.30;;;;;;5093569;28;20476;-64
2022/04/17 10:54:18;;;;;;;3.90;2.10;;;15.60;53.00;;;;;;5093848;28;20519;-64
2022/04/17 10:56:59;;;;;;;4.40;2.70;;;15.70;53.10;;;;;;5093248;28;20476;-64
2022/04/17 10:59:29;;;;;;;4.40;2.00;;;15.70;53.10;;;;;;5093468;28;20470;-64
2022/04/17 11:02:01;;;;;;;2.83;2.13;;;15.70;53.10;;;;;;5093128;28;20454;-65
2022/04/17 11:04:31;;;;;;;2.53;2.33;;;15.70;53.00;;;;;;5093569;28;20460;-64
2022/04/17 11:07:29;;;;;;;2.10;1.90;;;15.70;53.10;;;;;;5093381;28;20465;-64
2022/04/17 11:10:22;;;;;;;1.80;1.70;;;15.70;53.40;;;;;;5058600;28;20453;-65
2022/04/17 11:12:53;;;;;;;3.50;2.30;;;15.60;53.40;;;;;;5093016;28;20515;-65
2022/04/17 11:15:25;;;;;;;2.00;1.80;;;15.70;53.20;;;;;;5093445;28;20466;-65
2022/04/17 11:17:52;;;;;;;2.27;2.00;;;15.70;52.20;;;;;;5092298;28;20839;-65
2022/04/17 11:20:21;;;;;;;2.80;2.30;;;15.60;51.50;;;;;;5093531;27;20530;-65
2022/04/17 11:22:48;;;;;;;1.87;1.77;;;15.70;51.50;;;;;;5092722;28;20462;-65
2022/04/17 11:25:15;;;;;;;1.57;1.43;;;15.70;51.00;;;;;;5093254;28;20468;-65
2022/04/17 11:27:47;;;;;;;2.37;1.73;;;15.70;50.20;;;;;;5092737;28;20465;-65
2022/04/17 11:30:32;;;;;;;2.07;1.90;;;15.80;50.00;;;;;;5093200;28;20465;-65
2022/04/17 11:33:02;;;;;;;1.73;1.60;;;15.80;49.10;;;;;;5092630;28;20796;-65
2022/04/17 11:35:30;;;;;;;2.27;2.07;;;15.90;47.80;;;;;;5093195;28;20468;-65
2022/04/17 11:38:01;;;;;;;1.70;1.60;;;15.90;47.90;;;;;;5092617;28;20790;-64
2022/04/17 11:40:30;;;;;;;2.70;1.87;;;15.90;47.90;;;;;;5093026;28;20487;-64
2022/04/17 11:43:03;;;;;;;1.50;1.40;;;16.00;46.90;;;;;;5092446;28;20472;-65
2022/04/17 11:45:30;;;;;;;1.93;1.50;;;16.10;47.30;;;;;;5093239;28;20465;-65
2022/04/17 11:48:03;;;;;;;1.80;1.47;;;16.10;47.20;;;;;;5092394;28;20466;-65
2022/04/17 11:50:31;;;;;;;5.47;2.03;;;16.10;45.90;;;;;;5092903;28;20470;-65
2022/04/17 11:53:00;;;;;;;1.70;1.60;;;16.10;46.50;;;;;;5092312;28;20466;-65
2022/04/17 11:55:29;;;;;;;2.10;1.90;;;16.10;46.70;;;;;;5093114;28;20461;-65
2022/04/17 11:57:56;;;;;;;2.00;1.60;;;16.10;47.80;;;;;;5092241;28;20481;-66
2022/04/17 12:00:24;;;;;;;2.30;2.20;;;16.10;48.60;;;;;;5092822;28;20482;-64
2022/04/17 12:02:56;;;;;;;2.47;2.17;;;16.10;48.70;;;;;;5092112;28;20491;-65
2022/04/17 12:05:23;;;;;;;2.43;2.03;;;16.10;48.80;;;;;;5092771;28;20534;-64
2022/04/17 12:07:59;;;;;;;2.87;2.67;;;16.20;49.00;;;;;;5092336;28;20952;-64
2022/04/17 12:10:25;;;;;;;1.90;1.80;;;16.20;49.50;;;;;;5092610;28;20470;-64
2022/04/17 12:12:52;;;;;;;2.37;1.60;;;16.30;49.70;;;;;;5092044;28;20462;-64
2022/04/17 12:15:20;;;;;;;1.73;1.63;;;16.40;49.60;;;;;;5092581;28;20465;-64
2022/04/17 12:17:57;;;;;;;2.33;2.10;;;16.40;49.80;;;;;;5092178;28;20791;-64
2022/04/17 12:20:25;;;;;;;3.60;1.80;;;16.40;49.10;;;;;;5092577;28;20465;-65
2022/04/17 12:22:52;;;;;;;1.67;1.57;;;16.40;49.50;;;;;;5091939;28;20464;-65
2022/04/17 12:25:22;;;;;;;1.90;1.67;;;16.40;49.90;;;;;;5092759;28;20463;-65
2022/04/17 12:27:50;;;;;;;2.30;2.10;;;16.50;48.80;;;;;;5072026;28;20472;-64
2022/04/17 12:30:20;;;;;;;1.90;1.70;;;16.50;48.20;;;;;;5073352;28;20984;-66
2022/04/17 12:32:48;;;;;;;2.57;1.70;;;16.50;46.90;;;;;;5075779;28;20542;-65
2022/04/17 12:35:23;;;;;;;1.40;1.30;;;16.50;46.70;;;;;;5076448;28;20467;-65
2022/04/17 12:37:50;;;;;;;1.73;1.60;;;16.50;46.60;;;;;;5075617;28;20533;-65
2022/04/17 12:40:22;;;;;;;3.30;1.80;;;16.50;46.60;;;;;;5076169;28;20513;-65
2022/04/17 12:42:50;;;;;;;2.00;1.90;;;16.60;47.20;;;;;;5075666;28;20466;-65
2022/04/17 12:45:24;;;;;;;2.10;1.60;;;16.60;47.10;;;;;;5076079;28;20477;-66
2022/04/17 12:48:02;;;;;;;1.73;1.63;;;16.60;47.50;;;;;;5075342;28;20470;-65
2022/04/17 12:50:29;;;;;;;1.93;1.53;;;16.60;46.70;;;;;;5075727;28;20472;-65
2022/04/17 12:52:56;;;;;;;2.30;1.57;;;16.60;46.20;;;;;;5075578;28;20476;-65
2022/04/17 12:55:30;;;;;;;1.87;1.53;;;16.70;45.50;;;;;;5075916;28;20471;-65
2022/04/17 12:57:58;;;;;;;1.77;1.37;;;16.70;44.90;;;;;;5075161;28;20476;-65
2022/04/17 13:00:27;;;;;;;2.17;1.90;;;16.70;44.60;;;;;;5075731;28;20469;-65
2022/04/17 13:03:09;;;;;;;1.60;1.50;;;16.70;44.50;;;;;;5081667;28;20523;-65
2022/04/17 13:05:36;;;;;;;1.67;1.57;;;16.80;44.80;;;;;;5095906;28;20474;-65
2022/04/17 13:08:05;;;;;;;2.33;1.53;;;16.80;45.00;;;;;;5095359;28;20756;-65